Time;durP1;ratioP1;P1;durP2;ratioP2;P2;SDS_P1;SDS_P2;PMS_P1;PMS_P2;Temp;Humidity;BMP_temperature;BMP_pressure;BME280_temperature;BME280_humidity;BME280_pressure;Samples;Min_cycle;Max_cycle;Signal;HPM_P1;HPM_P2
2022/04/21 00:00:44;;;;;;;13.30;6.22;;;7.90;99.90;;;;;;5010582;28;20029;-65
2022/04/21 00:03:10;;;;;;;15.55;6.38;;;7.90;99.90;;;;;;5010729;28;20021;-65
2022/04/21 00:05:36;;;;;;;13.27;5.88;;;7.90;99.90;;;;;;5010287;28;20030;-65
2022/04/21 00:08:02;;;;;;;11.00;6.18;;;7.80;99.90;;;;;;5010022;28;20104;-65
2022/04/21 00:10:28;;;;;;;12.02;5.50;;;7.80;99.90;;;;;;5008690;28;20030;-65
2022/04/21 00:12:55;;;;;;;10.15;5.90;;;7.70;99.90;;;;;;5007016;28;20033;-64
2022/04/21 00:15:21;;;;;;;15.52;5.80;;;7.70;99.90;;;;;;5008366;28;20319;-64
2022/04/21 00:17:47;;;;;;;14.93;6.65;;;7.70;99.90;;;;;;5008497;28;20032;-64
2022/04/21 00:20:13;;;;;;;12.55;6.35;;;7.70;99.90;;;;;;5006879;28;20105;-64
2022/04/21 00:25:26;;;;;;;11.50;5.80;;;7.60;99.90;;;;;;5010155;28;20041;-64
2022/04/21 00:27:52;;;;;;;17.08;6.78;;;7.60;99.90;;;;;;5009915;28;20121;-64
2022/04/21 00:30:18;;;;;;;16.40;6.75;;;7.60;99.90;;;;;;5009886;28;20144;-63
2022/04/21 00:32:44;;;;;;;15.30;6.55;;;7.50;99.90;;;;;;5011210;28;20022;-64
2022/04/21 00:35:14;;;;;;;11.90;5.95;;;7.50;99.90;;;;;;5009915;28;20111;-65
2022/04/21 00:37:56;;;;;;;14.55;7.57;;;7.50;99.90;;;;;;5010036;28;20469;-64
2022/04/21 00:40:26;;;;;;;15.57;6.35;;;7.50;99.90;;;;;;5009952;28;20018;-64
2022/04/21 00:42:52;;;;;;;11.48;6.20;;;7.50;99.90;;;;;;5010382;28;20076;-63
2022/04/21 00:45:18;;;;;;;12.50;6.32;;;7.50;99.90;;;;;;5010015;28;20046;-64
2022/04/21 00:47:45;;;;;;;13.73;6.35;;;7.50;99.90;;;;;;5009989;28;20022;-64
2022/04/21 00:50:19;;;;;;;14.88;6.72;;;7.50;99.90;;;;;;5009907;28;20385;-64
2022/04/21 00:52:46;;;;;;;11.65;5.93;;;7.40;99.90;;;;;;5009839;28;20393;-63
2022/04/21 00:55:12;;;;;;;15.50;7.50;;;7.40;99.90;;;;;;5009488;28;20501;-63
2022/04/21 00:57:40;;;;;;;14.30;6.00;;;7.40;99.90;;;;;;5009810;28;20026;-63
2022/04/21 01:00:06;;;;;;;12.95;6.28;;;7.40;99.90;;;;;;5009823;28;20029;-63
2022/04/21 01:02:52;;;;;;;10.77;6.25;;;7.40;99.90;;;;;;5008020;28;20029;-64
2022/04/21 01:05:26;;;;;;;17.63;6.72;;;7.30;99.90;;;;;;5006714;28;20073;-64
2022/04/21 01:07:53;;;;;;;12.82;5.97;;;7.20;99.90;;;;;;5008734;28;20034;-64
2022/04/21 01:10:19;;;;;;;12.25;6.40;;;7.20;99.90;;;;;;5009369;28;20508;-63
2022/04/21 01:12:45;;;;;;;14.32;6.82;;;7.10;99.90;;;;;;5009627;28;20045;-63
2022/04/21 01:15:11;;;;;;;15.75;6.50;;;7.00;99.90;;;;;;5009723;28;20088;-63
2022/04/21 01:17:39;;;;;;;15.48;6.53;;;7.00;99.90;;;;;;5009620;28;20030;-63
2022/04/21 01:20:07;;;;;;;13.65;6.60;;;7.00;99.90;;;;;;5009692;28;20033;-63
2022/04/21 01:22:32;;;;;;;13.70;6.70;;;7.00;99.90;;;;;;5012375;28;20104;-63
2022/04/21 01:24:58;;;;;;;16.83;6.80;;;6.90;99.90;;;;;;5009664;28;20474;-63
2022/04/21 01:27:27;;;;;;;15.48;6.35;;;7.00;99.90;;;;;;5013105;28;20041;-64
2022/04/21 01:29:53;;;;;;;14.75;7.60;;;7.00;99.90;;;;;;5013306;28;20026;-63
2022/04/21 01:32:19;;;;;;;15.55;7.38;;;7.00;99.90;;;;;;5013276;28;20022;-63
2022/04/21 01:34:45;;;;;;;13.77;7.47;;;7.00;99.90;;;;;;5013037;28;20026;-64
2022/04/21 01:42:39;;;;;;;15.32;6.72;;;7.00;99.90;;;;;;5013566;28;20100;-63
2022/04/21 01:45:05;;;;;;;13.13;6.97;;;7.00;99.90;;;;;;5012994;28;20026;-63
2022/04/21 01:47:30;;;;;;;15.90;6.85;;;7.00;99.90;;;;;;5012912;28;20030;-63
2022/04/21 01:49:56;;;;;;;15.70;6.50;;;7.00;99.90;;;;;;5021246;28;20167;-63
2022/04/21 01:52:22;;;;;;;15.45;7.43;;;6.90;99.90;;;;;;5029251;28;20022;-63
2022/04/21 01:54:50;;;;;;;15.40;6.82;;;6.90;99.90;;;;;;5029453;28;20036;-63
2022/04/21 01:57:18;;;;;;;15.93;7.90;;;6.90;99.90;;;;;;5029332;28;20029;-63
2022/04/21 01:59:44;;;;;;;18.20;7.55;;;6.80;99.90;;;;;;5029391;28;20041;-65
2022/04/21 02:02:10;;;;;;;13.48;7.10;;;6.80;99.90;;;;;;5029118;28;20022;-63
2022/04/21 02:04:35;;;;;;;17.27;8.07;;;6.80;99.90;;;;;;5030472;28;20128;-63
2022/04/21 02:07:03;;;;;;;13.18;6.45;;;6.90;99.90;;;;;;5032194;28;20037;-63
2022/04/21 02:09:29;;;;;;;16.20;7.35;;;6.90;99.90;;;;;;5031920;28;20033;-64
2022/04/21 02:11:55;;;;;;;18.10;6.55;;;6.90;99.90;;;;;;5032297;28;20087;-64
2022/04/21 02:14:21;;;;;;;14.23;6.88;;;6.90;99.90;;;;;;5032340;28;20412;-64
2022/04/21 02:16:46;;;;;;;22.13;7.88;;;6.80;99.90;;;;;;5032251;28;20105;-64
2022/04/21 02:19:12;;;;;;;14.68;6.60;;;6.80;99.90;;;;;;5032280;28;20117;-63
2022/04/21 02:21:37;;;;;;;13.70;7.20;;;6.80;99.90;;;;;;5032011;28;20397;-63
2022/04/21 02:24:03;;;;;;;13.93;8.40;;;6.90;99.90;;;;;;5031605;28;20074;-64
2022/04/21 02:26:29;;;;;;;15.82;6.95;;;6.80;99.90;;;;;;5031773;28;20049;-63
2022/04/21 02:28:54;;;;;;;15.18;6.95;;;6.80;99.90;;;;;;5027492;28;20473;-63
2022/04/21 02:31:20;;;;;;;17.52;7.65;;;6.70;99.90;;;;;;5012106;28;20026;-63
2022/04/21 02:33:47;;;;;;;15.98;7.10;;;6.70;99.90;;;;;;5011971;28;20453;-63
2022/04/21 02:36:12;;;;;;;18.35;7.80;;;6.60;99.90;;;;;;5011510;28;20018;-65
2022/04/21 02:38:38;;;;;;;22.25;8.55;;;6.50;99.90;;;;;;5011654;28;20380;-64
2022/04/21 02:41:04;;;;;;;17.48;8.23;;;6.50;99.90;;;;;;5012129;28;20026;-64
2022/04/21 02:43:29;;;;;;;18.63;7.80;;;6.40;99.90;;;;;;5009356;28;20038;-64
2022/04/21 02:45:55;;;;;;;22.80;8.93;;;6.40;99.90;;;;;;5008730;28;20112;-64
2022/04/21 02:48:21;;;;;;;19.27;8.13;;;6.40;99.90;;;;;;5008796;28;20444;-64
2022/04/21 02:50:49;;;;;;;15.40;7.40;;;6.40;99.90;;;;;;5008596;28;20032;-64
2022/04/21 02:53:17;;;;;;;19.40;8.50;;;6.40;99.90;;;;;;5010734;28;20065;-64
2022/04/21 02:58:27;;;;;;;17.38;8.05;;;6.40;99.90;;;;;;5011961;28;20380;-64
2022/04/21 03:00:53;;;;;;;17.40;8.40;;;6.40;99.90;;;;;;5011460;28;20092;-64
2022/04/21 03:03:18;;;;;;;18.98;8.10;;;6.40;99.90;;;;;;5011351;28;20022;-63
2022/04/21 03:05:44;;;;;;;19.55;8.02;;;6.40;99.90;;;;;;5011326;28;20121;-63
2022/04/21 03:08:10;;;;;;;14.30;7.97;;;6.30;99.90;;;;;;5011423;28;20376;-64
2022/04/21 03:10:35;;;;;;;13.15;7.22;;;6.30;99.90;;;;;;5011195;28;20026;-64
2022/04/21 03:13:01;;;;;;;15.38;8.30;;;6.20;99.90;;;;;;5011470;28;20092;-64
2022/04/21 03:15:27;;;;;;;17.83;8.05;;;6.30;99.90;;;;;;5011242;28;20105;-64
2022/04/21 03:17:52;;;;;;;15.52;8.00;;;6.20;99.90;;;;;;5013814;28;20113;-64
2022/04/21 03:25:46;;;;;;;22.05;7.95;;;6.20;99.90;;;;;;5030546;28;20107;-63
2022/04/21 03:28:13;;;;;;;23.08;8.35;;;6.20;99.90;;;;;;5029125;28;20049;-64
2022/04/21 03:30:38;;;;;;;14.20;7.13;;;6.20;99.90;;;;;;5030735;28;20053;-63
2022/04/21 03:33:05;;;;;;;14.00;7.35;;;6.20;99.90;;;;;;5030858;28;20099;-64
2022/04/21 03:35:30;;;;;;;18.17;9.07;;;6.10;99.90;;;;;;5030820;28;20080;-64
2022/04/21 03:37:56;;;;;;;17.45;7.63;;;6.10;99.90;;;;;;5028988;28;20439;-64
2022/04/21 03:40:22;;;;;;;15.93;8.38;;;6.10;99.90;;;;;;5030462;28;20037;-64
2022/04/21 03:42:47;;;;;;;19.08;7.95;;;6.10;99.90;;;;;;5030360;28;20022;-64
2022/04/21 03:45:13;;;;;;;15.75;8.38;;;6.10;99.90;;;;;;5030471;28;20045;-64
2022/04/21 03:47:39;;;;;;;18.40;8.65;;;6.10;99.90;;;;;;5029805;28;20117;-64
2022/04/21 03:50:05;;;;;;;17.75;8.88;;;6.10;99.90;;;;;;5030261;28;20053;-64
2022/04/21 03:52:31;;;;;;;19.20;8.63;;;6.10;99.90;;;;;;5030526;28;20048;-64
2022/04/21 03:54:57;;;;;;;21.48;8.52;;;6.00;99.90;;;;;;5030023;28;20333;-64
2022/04/21 03:57:23;;;;;;;21.63;8.70;;;6.00;99.90;;;;;;5030168;28;20025;-64
2022/04/21 03:59:49;;;;;;;16.88;8.93;;;6.00;99.90;;;;;;5030151;28;20423;-64
2022/04/21 04:02:15;;;;;;;17.88;9.02;;;6.00;99.90;;;;;;5030071;28;20529;-64
2022/04/21 04:04:40;;;;;;;22.25;10.45;;;6.00;99.90;;;;;;5030040;28;20034;-64
2022/04/21 04:12:37;;;;;;;22.85;9.85;;;6.00;99.90;;;;;;5030199;28;20060;-63
2022/04/21 04:15:06;;;;;;;20.90;9.32;;;6.00;99.90;;;;;;5030082;28;20409;-63
2022/04/21 04:17:32;;;;;;;19.42;9.73;;;6.00;99.90;;;;;;5026815;28;20108;-64
2022/04/21 04:19:59;;;;;;;20.70;9.45;;;5.90;99.90;;;;;;5026708;28;20491;-64
2022/04/21 04:22:24;;;;;;;23.17;10.98;;;5.90;99.90;;;;;;5029167;28;20049;-63
2022/04/21 04:24:53;;;;;;;20.35;10.43;;;6.00;99.90;;;;;;5029720;28;20030;-63
2022/04/21 04:27:20;;;;;;;23.25;10.27;;;6.00;99.90;;;;;;5029817;28;20045;-64
2022/04/21 04:29:46;;;;;;;20.42;10.10;;;5.90;99.90;;;;;;5012585;28;20030;-63
2022/04/21 04:32:14;;;;;;;25.17;11.10;;;5.90;99.90;;;;;;5007562;28;20022;-64
2022/04/21 04:34:39;;;;;;;23.30;10.15;;;5.90;99.90;;;;;;5006806;28;20366;-64
2022/04/21 04:37:05;;;;;;;27.95;10.63;;;5.80;99.90;;;;;;5008124;28;20030;-63
2022/04/21 04:39:31;;;;;;;24.50;10.75;;;5.90;99.90;;;;;;5009731;28;20026;-63
2022/04/21 04:44:40;;;;;;;27.50;12.05;;;5.80;99.90;;;;;;5010106;28;20036;-64
2022/04/21 04:47:06;;;;;;;24.10;11.38;;;5.80;99.90;;;;;;5010035;28;20104;-63
2022/04/21 04:49:31;;;;;;;20.77;9.52;;;5.80;99.90;;;;;;5009953;28;20030;-64
2022/04/21 04:51:57;;;;;;;20.92;11.48;;;5.80;99.90;;;;;;5009829;28;20037;-63
2022/04/21 04:54:23;;;;;;;20.88;11.27;;;5.80;99.90;;;;;;5009738;28;20018;-63
2022/04/21 04:56:48;;;;;;;21.48;11.90;;;5.80;99.90;;;;;;5009994;28;20443;-63
2022/04/21 04:59:14;;;;;;;28.92;13.02;;;5.80;99.90;;;;;;5010598;28;20022;-63
2022/04/21 05:01:43;;;;;;;29.48;13.38;;;5.80;99.90;;;;;;5011426;28;20030;-64
2022/04/21 05:04:13;;;;;;;26.52;12.50;;;5.90;99.90;;;;;;5011060;28;20053;-64
2022/04/21 05:06:50;;;;;;;24.20;13.65;;;6.00;99.90;;;;;;5011247;28;20033;-64
2022/04/21 05:09:17;;;;;;;27.40;12.65;;;6.00;99.90;;;;;;5010492;28;20034;-64
2022/04/21 05:11:46;;;;;;;25.25;12.70;;;6.10;99.90;;;;;;5010615;28;20443;-64
2022/04/21 05:14:12;;;;;;;30.25;12.65;;;6.20;99.90;;;;;;5011915;28;20033;-63
2022/04/21 05:16:39;;;;;;;26.08;14.15;;;6.20;99.90;;;;;;5011437;28;20521;-63
2022/04/21 05:19:16;;;;;;;30.10;13.55;;;6.30;99.90;;;;;;5013707;28;20022;-64
2022/04/21 05:21:42;;;;;;;27.65;13.20;;;6.40;99.90;;;;;;5018237;28;20480;-63
2022/04/21 05:24:10;;;;;;;28.00;14.52;;;6.50;99.90;;;;;;5033205;28;20055;-64
2022/04/21 05:26:40;;;;;;;22.45;12.60;;;6.60;99.90;;;;;;5033207;28;20041;-63
2022/04/21 05:31:59;;;;;;;27.45;13.98;;;6.80;99.90;;;;;;5031431;28;20079;-63
2022/04/21 05:34:27;;;;;;;29.48;14.32;;;6.90;99.90;;;;;;5030201;28;20037;-63
2022/04/21 05:36:53;;;;;;;26.38;13.13;;;7.00;99.90;;;;;;5031257;28;20032;-64
2022/04/21 05:39:20;;;;;;;26.15;13.38;;;7.20;99.90;;;;;;5032723;28;20055;-63
2022/04/21 05:41:47;;;;;;;26.45;13.23;;;7.30;99.90;;;;;;5030453;28;20025;-63
2022/04/21 05:44:13;;;;;;;24.15;12.05;;;7.40;99.90;;;;;;5029978;28;20044;-64
2022/04/21 05:46:40;;;;;;;30.60;15.18;;;7.50;99.90;;;;;;5031500;28;20072;-64
2022/04/21 05:49:06;;;;;;;32.10;15.10;;;7.70;99.90;;;;;;5032772;28;20020;-63
2022/04/21 05:51:32;;;;;;;22.92;13.02;;;7.80;99.90;;;;;;5032610;28;20032;-63
2022/04/21 05:53:58;;;;;;;25.40;11.55;;;8.00;99.90;;;;;;5032396;28;20092;-63
2022/04/21 05:56:24;;;;;;;23.48;13.05;;;8.20;99.90;;;;;;5031626;28;20068;-63
2022/04/21 05:58:51;;;;;;;26.02;11.35;;;8.20;99.90;;;;;;5029768;28;20044;-64
2022/04/21 06:01:16;;;;;;;24.73;11.63;;;8.30;99.90;;;;;;5029566;28;20033;-63
2022/04/21 06:03:42;;;;;;;26.33;13.05;;;8.30;99.90;;;;;;5032423;28;20112;-63
2022/04/21 06:06:09;;;;;;;24.55;13.15;;;8.30;99.90;;;;;;5032358;28;20041;-63
2022/04/21 06:08:36;;;;;;;24.52;11.68;;;8.50;99.90;;;;;;5032237;28;20022;-63
2022/04/21 06:11:02;;;;;;;28.52;14.20;;;8.60;99.90;;;;;;5031244;28;20029;-63
2022/04/21 06:13:28;;;;;;;27.40;13.73;;;8.80;99.90;;;;;;5032324;28;20388;-63
2022/04/21 06:15:54;;;;;;;26.63;13.77;;;8.90;99.90;;;;;;5032026;28;20038;-63
2022/04/21 06:18:20;;;;;;;27.80;12.80;;;9.10;99.90;;;;;;5032175;28;20140;-64
2022/04/21 06:20:46;;;;;;;22.63;13.13;;;9.30;99.90;;;;;;5032102;28;20049;-63
2022/04/21 06:23:13;;;;;;;26.20;13.85;;;9.50;99.90;;;;;;5028466;28;20377;-63
2022/04/21 06:25:39;;;;;;;26.63;13.63;;;9.60;99.90;;;;;;5028694;28;20033;-63
2022/04/21 06:28:05;;;;;;;26.85;13.95;;;9.80;99.90;;;;;;5011969;28;20448;-63
2022/04/21 06:30:31;;;;;;;27.77;14.35;;;9.90;99.90;;;;;;5012453;28;20033;-63
2022/04/21 06:32:58;;;;;;;27.27;14.43;;;10.00;99.90;;;;;;5012224;28;20030;-63
2022/04/21 06:35:27;;;;;;;25.42;14.05;;;10.10;99.90;;;;;;5012480;28;20076;-63
2022/04/21 06:37:54;;;;;;;24.50;14.52;;;10.20;99.90;;;;;;5008962;28;20415;-63
2022/04/21 06:40:20;;;;;;;23.35;12.95;;;10.40;99.90;;;;;;5016488;28;20105;-64
2022/04/21 06:42:46;;;;;;;22.67;12.32;;;10.50;99.90;;;;;;5030697;28;20425;-63
2022/04/21 06:48:03;;;;;;;26.70;14.48;;;10.80;99.90;;;;;;5032262;28;20094;-63
2022/04/21 06:50:33;;;;;;;26.80;15.30;;;10.90;99.90;;;;;;5031758;28;20046;-63
2022/04/21 06:53:03;;;;;;;32.40;14.75;;;11.10;99.90;;;;;;5031391;28;20026;-64
2022/04/21 06:55:29;;;;;;;29.52;16.08;;;11.30;99.90;;;;;;5031361;28;20084;-64
2022/04/21 06:57:55;;;;;;;30.73;14.50;;;11.50;99.90;;;;;;5028378;28;20053;-63
2022/04/21 07:00:22;;;;;;;35.85;15.35;;;11.70;99.90;;;;;;5027551;28;20104;-64
2022/04/21 07:02:51;;;;;;;24.45;14.23;;;12.00;99.90;;;;;;5027555;28;20014;-64
2022/04/21 07:05:17;;;;;;;30.75;14.10;;;12.50;99.90;;;;;;5027692;28;20069;-64
2022/04/21 07:07:44;;;;;;;22.77;13.60;;;13.10;99.90;;;;;;5029532;28;20349;-65
2022/04/21 07:10:11;;;;;;;25.30;13.68;;;13.70;99.90;;;;;;5030956;28;20036;-65
2022/04/21 07:12:37;;;;;;;27.48;12.90;;;14.60;99.80;;;;;;5031266;28;20029;-63
2022/04/21 07:15:05;;;;;;;24.95;14.55;;;15.40;97.10;;;;;;5030979;28;20033;-67
2022/04/21 07:17:34;;;;;;;26.98;13.73;;;16.10;92.80;;;;;;5031105;28;20018;-65
2022/04/21 07:20:02;;;;;;;24.65;14.25;;;16.70;91.00;;;;;;5031030;28;20040;-65
2022/04/21 07:22:29;;;;;;;23.20;14.48;;;17.10;89.50;;;;;;5030869;28;20029;-66
2022/04/21 07:24:56;;;;;;;25.17;15.07;;;17.60;83.50;;;;;;5027244;28;20458;-64
2022/04/21 07:27:23;;;;;;;24.00;14.65;;;17.90;78.30;;;;;;5030585;28;20060;-66
2022/04/21 07:29:49;;;;;;;23.38;14.13;;;18.10;77.60;;;;;;5030740;28;20511;-65
2022/04/21 07:32:16;;;;;;;21.35;14.20;;;18.60;73.50;;;;;;5030481;28;20116;-63
2022/04/21 07:34:41;;;;;;;24.58;14.85;;;18.80;70.50;;;;;;5030293;28;20116;-65
2022/04/21 07:37:08;;;;;;;20.58;13.95;;;19.10;68.90;;;;;;5030503;28;20116;-65
2022/04/21 07:39:40;;;;;;;21.30;13.68;;;19.40;65.10;;;;;;5030106;28;20453;-65
2022/04/21 07:42:07;;;;;;;23.67;13.50;;;19.40;60.70;;;;;;5030483;28;20124;-65
2022/04/21 07:44:36;;;;;;;26.98;15.27;;;19.50;60.10;;;;;;5030402;28;20091;-65
2022/04/21 07:47:03;;;;;;;20.23;14.52;;;19.50;59.30;;;;;;5029809;28;20028;-65
2022/04/21 07:49:48;;;;;;;21.90;14.63;;;19.60;58.40;;;;;;5030266;28;20380;-65
2022/04/21 07:55:15;;;;;;;24.25;14.80;;;20.40;53.90;;;;;;5029171;28;20035;-64
2022/04/21 07:57:42;;;;;;;20.80;14.23;;;20.50;54.30;;;;;;5030172;28;20071;-65
2022/04/21 08:00:09;;;;;;;19.25;13.95;;;20.60;53.00;;;;;;5030421;28;20464;-64
2022/04/21 08:02:34;;;;;;;20.98;14.15;;;20.90;49.20;;;;;;5030164;28;20040;-65
2022/04/21 08:05:00;;;;;;;25.15;15.77;;;21.20;48.40;;;;;;5029563;28;20033;-65
2022/04/21 08:07:26;;;;;;;21.27;13.93;;;21.30;48.00;;;;;;5030061;28;20436;-64
2022/04/21 08:09:52;;;;;;;19.38;13.65;;;21.50;46.30;;;;;;5028770;28;20377;-65
2022/04/21 08:12:17;;;;;;;21.77;15.10;;;21.60;43.30;;;;;;5028845;28;20025;-64
2022/04/21 08:14:43;;;;;;;23.23;15.55;;;22.10;43.30;;;;;;5029165;28;20033;-65
2022/04/21 08:17:09;;;;;;;21.52;15.27;;;22.20;42.50;;;;;;5029273;28;20033;-64
2022/04/21 08:19:35;;;;;;;18.38;13.02;;;22.20;42.30;;;;;;5029107;28;20029;-63
2022/04/21 08:22:00;;;;;;;21.77;13.27;;;22.90;41.30;;;;;;5029187;28;20040;-65
2022/04/21 08:32:43;;;;;;;17.90;12.65;;;23.90;31.30;;;;;;5006881;28;20064;-64
2022/04/21 08:35:13;;;;;;;;;;;24.10;32.80;;;;;;5006329;28;20114;-65
2022/04/21 08:37:45;;;;;;;18.70;12.45;;;24.20;30.00;;;;;;5005384;28;19976;-65
2022/04/21 08:40:11;;;;;;;16.63;13.13;;;24.90;29.60;;;;;;5008238;28;20057;-69
2022/04/21 08:42:41;;;;;;;19.65;13.18;;;25.20;29.20;;;;;;5009979;28;20053;-64
2022/04/21 08:45:08;;;;;;;17.45;13.07;;;25.50;27.50;;;;;;5010043;28;20038;-65
2022/04/21 08:47:34;;;;;;;18.77;13.40;;;25.80;26.40;;;;;;5010577;28;20466;-65
2022/04/21 08:50:04;;;;;;;18.88;13.10;;;26.00;25.50;;;;;;5029570;28;20037;-61
2022/04/21 08:52:31;;;;;;;19.30;12.85;;;26.10;25.30;;;;;;5018246;28;20113;-63
2022/04/21 08:54:57;;;;;;;18.70;12.43;;;27.00;26.10;;;;;;5009860;28;20077;-62
2022/04/21 08:57:23;;;;;;;18.25;12.50;;;27.60;25.00;;;;;;5023808;28;20078;-63
2022/04/21 08:59:48;;;;;;;19.02;12.73;;;28.30;22.40;;;;;;5029515;28;20025;-62
2022/04/21 09:02:14;;;;;;;19.08;12.50;;;28.40;20.50;;;;;;5029511;28;20025;-62
2022/04/21 09:04:42;;;;;;;18.75;12.38;;;28.60;21.40;;;;;;5029361;28;20491;-62
2022/04/21 09:07:19;;;;;;;19.65;11.82;;;29.00;19.90;;;;;;5029444;28;20364;-63
2022/04/21 09:10:03;;;;;;;19.02;13.95;;;29.50;19.00;;;;;;5025908;28;20098;-63
2022/04/21 09:12:29;;;;;;;17.92;13.25;;;29.90;18.70;;;;;;5026362;28;20044;-62
2022/04/21 09:14:55;;;;;;;19.48;13.55;;;29.80;18.90;;;;;;5028144;28;20029;-63
2022/04/21 09:17:21;;;;;;;20.98;13.25;;;29.70;18.60;;;;;;5026145;28;20109;-63
2022/04/21 09:19:57;;;;;;;17.55;13.38;;;30.30;18.90;;;;;;5027216;28;20035;-63
2022/04/21 09:22:23;;;;;;;18.15;13.02;;;30.80;17.60;;;;;;5026826;28;20116;-63
2022/04/21 09:24:53;;;;;;;17.85;12.80;;;31.30;17.30;;;;;;5019150;28;20136;-63
2022/04/21 09:27:19;;;;;;;17.40;13.95;;;31.40;17.30;;;;;;5006123;28;20412;-64
2022/04/21 09:29:45;;;;;;;20.20;13.63;;;32.00;17.00;;;;;;5006252;28;20044;-65
2022/04/21 09:32:17;;;;;;;18.40;13.88;;;32.30;16.30;;;;;;5009139;28;20041;-63
2022/04/21 09:34:48;;;;;;;21.65;13.15;;;32.50;15.50;;;;;;5006650;28;20393;-63
2022/04/21 09:37:19;;;;;;;18.88;13.00;;;32.50;16.20;;;;;;5006915;28;20049;-65
2022/04/21 09:39:49;;;;;;;;;;;32.40;16.00;;;;;;5006590;28;20432;-65
2022/04/21 09:42:23;;;;;;;15.45;12.10;;;32.60;14.90;;;;;;5008523;28;20356;-66
2022/04/21 09:47:33;;;;;;;19.90;13.65;;;33.50;12.90;;;;;;5012041;28;20471;-63
2022/04/21 09:50:11;;;;;;;15.50;11.68;;;33.90;13.10;;;;;;5012776;28;20026;-65
2022/04/21 09:52:36;;;;;;;18.30;12.77;;;34.00;12.40;;;;;;5025198;28;20037;-65
2022/04/21 09:55:31;;;;;;;17.83;13.43;;;34.90;12.60;;;;;;5030073;28;20029;-68
2022/04/21 09:58:10;;;;;;;17.15;12.85;;;35.30;11.70;;;;;;5029536;28;20029;-67
2022/04/21 10:00:37;;;;;;;19.10;13.50;;;35.40;11.40;;;;;;5029701;28;20034;-67
2022/04/21 10:03:05;;;;;;;19.35;13.90;;;35.10;11.20;;;;;;5029219;28;20807;-68
2022/04/21 10:05:32;;;;;;;14.65;11.93;;;35.30;12.10;;;;;;5025776;28;20180;-63
2022/04/21 10:08:03;;;;;;;16.40;12.85;;;35.50;11.60;;;;;;5024110;28;20022;-64
2022/04/21 10:10:30;;;;;;;14.07;11.38;;;35.30;11.00;;;;;;5031595;28;20029;-62
2022/04/21 10:12:57;;;;;;;17.38;12.45;;;34.80;11.10;;;;;;5020728;28;20026;-63
2022/04/21 10:15:24;;;;;;;15.52;11.93;;;35.20;11.00;;;;;;5011964;28;20078;-63
2022/04/21 10:17:50;;;;;;;17.08;12.18;;;35.30;10.80;;;;;;5011982;28;20389;-65
2022/04/21 10:20:16;;;;;;;14.40;11.57;;;35.20;10.60;;;;;;5011955;28;20481;-64
2022/04/21 10:22:42;;;;;;;14.10;11.98;;;36.00;10.50;;;;;;5011338;28;20026;-64
2022/04/21 10:25:09;;;;;;;16.17;11.48;;;36.50;10.10;;;;;;5008213;28;20045;-64
2022/04/21 10:27:39;;;;;;;18.40;11.68;;;36.40;10.00;;;;;;5008401;28;20054;-63
2022/04/21 10:30:21;;;;;;;15.30;11.43;;;36.30;9.40;;;;;;5011889;28;20038;-62
2022/04/21 10:32:52;;;;;;;14.38;12.18;;;36.40;8.90;;;;;;5012169;28;20125;-64
2022/04/21 10:35:24;;;;;;;16.23;11.88;;;36.30;9.30;;;;;;5017490;28;20036;-62
2022/04/21 10:38:14;;;;;;;14.30;12.10;;;36.50;9.00;;;;;;5030505;28;20441;-63
2022/04/21 10:41:10;;;;;;;16.95;12.13;;;37.00;8.90;;;;;;5031893;28;20026;-63
2022/04/21 10:44:12;;;;;;;16.52;12.35;;;37.20;9.50;;;;;;5031483;28;20028;-63
2022/04/21 10:46:37;;;;;;;15.23;11.13;;;38.20;8.20;;;;;;5018246;28;20077;-64
2022/04/21 10:49:03;;;;;;;14.73;11.07;;;38.60;8.00;;;;;;5031745;28;20069;-63
2022/04/21 10:57:36;;;;;;;14.27;10.23;;;38.10;7.40;;;;;;5031194;28;20068;-64
2022/04/21 11:00:03;;;;;;;13.63;10.82;;;39.50;7.30;;;;;;5031643;28;20040;-64
2022/04/21 11:02:39;;;;;;;14.50;11.13;;;39.10;6.70;;;;;;5029366;28;20867;-63
2022/04/21 11:05:27;;;;;;;16.77;11.52;;;38.90;6.80;;;;;;5028506;28;20056;-64
2022/04/21 11:07:58;;;;;;;13.88;10.55;;;38.70;7.50;;;;;;5021838;28;21347;-65
2022/04/21 11:10:28;;;;;;;13.20;10.45;;;38.40;7.30;;;;;;5023021;28;20435;-63
2022/04/21 11:12:54;;;;;;;15.35;11.05;;;37.90;7.30;;;;;;5026767;28;20124;-62
2022/04/21 11:15:58;;;;;;;13.63;10.27;;;37.90;7.30;;;;;;5027124;28;20112;-62
2022/04/21 11:18:32;;;;;;;12.43;9.75;;;37.60;7.10;;;;;;5018584;28;20131;-62
2022/04/21 11:21:27;;;;;;;16.20;10.90;;;38.30;7.30;;;;;;5027646;28;20036;-62
2022/04/21 11:23:52;;;;;;;12.65;9.70;;;39.10;6.90;;;;;;5015066;28;20065;-63
2022/04/21 11:26:25;;;;;;;13.13;9.55;;;39.50;6.40;;;;;;5027530;28;20473;-63
2022/04/21 11:28:51;;;;;;;12.48;10.10;;;40.20;6.20;;;;;;5027162;28;20096;-63
2022/04/21 11:31:20;;;;;;;16.17;10.40;;;38.90;5.20;;;;;;5027532;28;20034;-63
2022/04/21 11:33:46;;;;;;;11.77;9.90;;;39.40;6.10;;;;;;5027754;28;20109;-64
2022/04/21 11:36:16;;;;;;;13.00;9.60;;;39.30;6.10;;;;;;5024370;28;20049;-62
2022/04/21 11:38:43;;;;;;;14.20;9.43;;;35.90;7.10;;;;;;5027529;28;20559;-64
2022/04/21 11:41:10;;;;;;;11.82;10.52;;;37.50;7.60;;;;;;5027318;28;20071;-64
2022/04/21 11:43:44;;;;;;;10.98;8.98;;;38.20;6.60;;;;;;5027418;28;20480;-64
2022/04/21 11:46:12;;;;;;;14.00;9.25;;;38.80;5.80;;;;;;5026096;28;20369;-63
2022/04/21 11:48:42;;;;;;;11.30;8.30;;;38.30;4.90;;;;;;5027486;28;20104;-65
2022/04/21 11:51:12;;;;;;;10.93;7.93;;;38.60;5.30;;;;;;5027252;28;20053;-64
2022/04/21 11:53:43;;;;;;;10.90;8.98;;;39.20;5.70;;;;;;5007417;28;20034;-64
2022/04/21 11:56:10;;;;;;;10.18;8.23;;;36.50;5.70;;;;;;5007289;28;20450;-61
2022/04/21 11:58:41;;;;;;;13.35;8.57;;;32.40;7.60;;;;;;5007001;28;20018;-61
2022/04/21 12:06:45;;;;;;;9.82;7.82;;;31.40;9.10;;;;;;5007155;28;20105;-63
2022/04/21 12:09:15;;;;;;;;;;;34.80;9.00;;;;;;5007062;28;20056;-62
2022/04/21 12:11:49;;;;;;;7.82;6.95;;;36.30;7.90;;;;;;5006965;28;20060;-62
2022/04/21 12:14:16;;;;;;;12.38;7.72;;;37.30;6.90;;;;;;5007177;28;20393;-63
2022/04/21 12:16:47;;;;;;;10.55;7.53;;;38.40;6.80;;;;;;5007121;28;20022;-62
2022/04/21 12:19:28;;;;;;;9.73;6.22;;;38.40;6.60;;;;;;5006882;28;20046;-62
2022/04/21 12:22:08;;;;;;;8.77;6.45;;;39.50;5.30;;;;;;5007354;28;20026;-62
2022/04/21 12:24:51;;;;;;;10.68;6.60;;;39.70;3.90;;;;;;5007161;28;20438;-63
2022/04/21 12:27:34;;;;;;;7.95;5.95;;;39.20;4.80;;;;;;5006866;28;20060;-63
2022/04/21 12:30:03;;;;;;;8.35;7.07;;;38.80;5.90;;;;;;5006976;28;20409;-63
2022/04/21 12:32:31;;;;;;;7.93;7.13;;;39.30;5.50;;;;;;5007077;28;20101;-63
2022/04/21 12:34:59;;;;;;;8.43;6.35;;;39.10;5.10;;;;;;5007328;28;20025;-64
2022/04/21 12:37:27;;;;;;;8.07;5.88;;;39.30;5.60;;;;;;5008877;28;20109;-63
2022/04/21 12:39:54;;;;;;;7.28;5.60;;;39.90;5.40;;;;;;5006787;28;20052;-64
2022/04/21 12:42:20;;;;;;;6.50;5.80;;;39.20;4.90;;;;;;5007312;28;20157;-65
2022/04/21 12:44:46;;;;;;;11.38;5.72;;;38.60;5.10;;;;;;5006835;28;20033;-64
2022/04/21 12:47:19;;;;;;;7.47;5.68;;;38.80;5.40;;;;;;5006943;28;20109;-64
2022/04/21 12:50:03;;;;;;;6.88;5.93;;;39.10;5.70;;;;;;5007069;28;20125;-64
2022/04/21 12:52:41;;;;;;;7.55;4.97;;;38.70;6.40;;;;;;5006761;28;20080;-63
2022/04/21 12:55:10;;;;;;;9.82;5.70;;;38.90;5.90;;;;;;5006629;28;20030;-63
2022/04/21 12:57:37;;;;;;;9.13;5.65;;;37.90;5.60;;;;;;5006608;28;20117;-62
2022/04/21 13:00:10;;;;;;;7.40;5.55;;;37.50;6.40;;;;;;5006906;28;20026;-63
2022/04/21 13:02:37;;;;;;;5.82;4.93;;;37.40;6.50;;;;;;5006966;28;20113;-66
2022/04/21 13:05:03;;;;;;;6.63;5.45;;;37.40;6.80;;;;;;5006587;28;20029;-66
2022/04/21 13:07:29;;;;;;;7.35;5.90;;;37.60;6.20;;;;;;5006634;28;20396;-63
2022/04/21 13:09:55;;;;;;;9.82;6.10;;;36.40;6.20;;;;;;5006504;28;20544;-63
2022/04/21 13:12:21;;;;;;;6.63;5.55;;;36.00;6.50;;;;;;5006474;28;20743;-63
2022/04/21 13:14:46;;;;;;;7.40;5.60;;;36.10;6.70;;;;;;5006694;28;20030;-63
2022/04/21 13:17:12;;;;;;;8.15;4.97;;;35.10;7.80;;;;;;5006543;28;20057;-64
2022/04/21 13:19:38;;;;;;;8.10;5.35;;;35.20;7.60;;;;;;5006161;28;20034;-63
2022/04/21 13:22:04;;;;;;;6.93;6.15;;;35.20;7.60;;;;;;5010333;28;20084;-65
2022/04/21 13:24:31;;;;;;;6.00;5.40;;;35.70;7.00;;;;;;5010042;28;20034;-64
2022/04/21 13:26:58;;;;;;;7.03;5.43;;;34.20;7.00;;;;;;5009935;28;20125;-64
2022/04/21 13:29:24;;;;;;;8.45;5.65;;;31.20;7.70;;;;;;5010667;28;20061;-62
2022/04/21 13:34:35;;;;;;;6.07;5.47;;;31.50;9.40;;;;;;5010123;28;20036;-63
2022/04/21 13:37:02;;;;;;;6.13;5.53;;;32.20;9.10;;;;;;5010829;28;20049;-63
2022/04/21 13:39:28;;;;;;;6.57;4.30;;;32.00;8.20;;;;;;5028384;28;20025;-64
2022/04/21 13:41:54;;;;;;;6.57;4.50;;;32.00;9.70;;;;;;5029517;28;20400;-62
2022/04/21 13:44:19;;;;;;;5.28;4.40;;;32.40;9.00;;;;;;5015745;28;20516;-63